createdAt,value
2023-04-02T00:00:23.019Z,7.12
2023-04-02T00:01:23.169Z,7.12
2023-04-02T00:02:23.290Z,7.12
2023-04-02T00:03:23.504Z,7.12
2023-04-02T00:04:23.586Z,7.04
2023-04-02T00:05:23.679Z,7.04
2023-04-02T00:06:23.822Z,6.88
2023-04-02T00:07:23.929Z,6.88
2023-04-02T00:08:24.100Z,6.88
2023-04-02T00:09:24.232Z,6.88
2023-04-02T00:10:24.379Z,6.88
2023-04-02T00:11:24.533Z,6.88
2023-04-02T00:12:24.683Z,6.8
2023-04-02T00:13:24.832Z,6.8
2023-04-02T00:14:24.939Z,6.72
2023-04-02T00:15:25.088Z,6.8
2023-04-02T00:16:25.219Z,6.72
2023-04-02T00:17:25.353Z,6.72
2023-04-02T00:18:25.568Z,6.72
2023-04-02T00:19:25.657Z,6.64
2023-04-02T00:20:25.758Z,6.72
2023-04-02T00:21:25.909Z,6.8
2023-04-02T00:22:26.004Z,6.64
2023-04-02T00:23:26.115Z,6.64
2023-04-02T00:24:26.254Z,6.64
2023-04-02T00:25:26.372Z,6.48
2023-04-02T00:26:26.755Z,6.48
2023-04-02T00:27:26.813Z,6.48
2023-04-02T00:28:26.924Z,6.48
2023-04-02T00:29:27.063Z,6.4
2023-04-02T00:30:27.216Z,6.4
2023-04-02T00:31:27.435Z,6.4
2023-04-02T00:32:27.562Z,6.4
2023-04-02T00:33:27.676Z,6.32
2023-04-02T00:34:27.816Z,6.32
2023-04-02T00:35:27.968Z,6.32
2023-04-02T00:36:28.092Z,6.32
2023-04-02T00:37:28.310Z,6.4
2023-04-02T00:38:28.385Z,6.24
2023-04-02T00:39:28.534Z,6.32
2023-04-02T00:40:28.693Z,6.4
2023-04-02T00:41:28.809Z,6.4
2023-04-02T00:42:28.939Z,6.32
2023-04-02T00:43:29.041Z,6.32
2023-04-02T00:44:29.182Z,6.32
2023-04-02T00:45:29.395Z,6.32
2023-04-02T00:46:29.461Z,6.24
2023-04-02T00:47:29.561Z,6.24
2023-04-02T00:48:29.697Z,6.24
2023-04-02T00:49:29.843Z,6.08
2023-04-02T00:50:30.015Z,6.08
2023-04-02T00:51:30.155Z,6.08
2023-04-02T00:52:30.308Z,6.08
2023-04-02T00:53:30.455Z,6.24
2023-04-02T00:54:30.554Z,6.24
2023-04-02T00:55:30.704Z,6.08
2023-04-02T00:56:30.857Z,6.08
2023-04-02T00:57:31.029Z,6
2023-04-02T00:58:31.159Z,6
2023-04-02T00:59:31.317Z,6
2023-04-02T01:00:31.460Z,6.08
2023-04-02T01:01:31.646Z,6
2023-04-02T01:02:31.857Z,6
2023-04-02T01:03:31.970Z,6
2023-04-02T01:04:32.066Z,5.92
2023-04-02T01:05:32.339Z,5.92
2023-04-02T01:06:32.372Z,5.92
2023-04-02T01:07:32.474Z,5.92
2023-04-02T01:08:32.579Z,5.92
2023-04-02T01:09:32.722Z,5.92
2023-04-02T01:10:32.880Z,5.84
2023-04-02T01:11:33.024Z,5.92
2023-04-02T01:12:33.174Z,5.84
2023-04-02T01:13:33.336Z,5.84
2023-04-02T01:14:33.480Z,5.84
2023-04-02T01:15:33.931Z,5.84
2023-04-02T01:16:33.743Z,5.6
2023-04-02T01:17:33.920Z,5.68
2023-04-02T01:18:34.044Z,5.68
2023-04-02T01:19:34.190Z,5.68
2023-04-02T01:20:34.289Z,5.68
2023-04-02T01:21:34.439Z,5.6
2023-04-02T01:22:34.591Z,5.68
2023-04-02T01:23:34.746Z,5.68
2023-04-02T01:24:34.891Z,5.68
2023-04-02T01:25:35.163Z,5.68
2023-04-02T01:26:35.198Z,5.6
2023-04-02T01:27:35.346Z,5.6
2023-04-02T01:28:35.497Z,5.52
2023-04-02T01:29:35.653Z,5.52
2023-04-02T01:30:35.799Z,5.6
2023-04-02T01:31:36.013Z,5.6
2023-04-02T01:32:36.097Z,5.6
2023-04-02T01:33:36.211Z,5.52
2023-04-02T01:34:36.371Z,5.52
2023-04-02T01:35:36.688Z,5.52
2023-04-02T01:36:36.609Z,5.52
2023-04-02T01:37:36.762Z,5.52
2023-04-02T01:38:36.914Z,5.52
2023-04-02T01:39:37.072Z,5.44
2023-04-02T01:40:37.221Z,5.44
2023-04-02T01:41:37.368Z,5.44
2023-04-02T01:42:37.519Z,5.44
2023-04-02T01:43:37.620Z,5.44
2023-04-02T01:44:37.770Z,5.44
2023-04-02T01:45:37.967Z,5.28
2023-04-02T01:46:38.087Z,5.44
2023-04-02T01:47:38.202Z,5.28
2023-04-02T01:48:38.329Z,5.28
2023-04-02T01:49:38.496Z,5.44
2023-04-02T01:50:38.643Z,5.28
2023-04-02T01:51:38.786Z,5.44
2023-04-02T01:52:38.930Z,5.44
2023-04-02T01:53:39.087Z,5.28
2023-04-02T01:54:39.235Z,5.28
2023-04-02T01:55:39.390Z,5.28
2023-04-02T01:56:39.491Z,5.2
2023-04-02T01:57:39.638Z,5.2
2023-04-02T01:58:39.794Z,5.2
2023-04-02T01:59:39.947Z,5.12
2023-04-02T02:01:40.561Z,5.12
2023-04-02T02:02:40.403Z,5.04
2023-04-02T02:03:40.500Z,5.04
2023-04-02T02:04:40.647Z,5.04
2023-04-02T02:05:40.753Z,5.04
2023-04-02T02:06:40.906Z,5.04
2023-04-02T02:07:41.062Z,5.12
2023-04-02T02:08:41.206Z,5.12
2023-04-02T02:09:41.359Z,5.12
2023-04-02T02:10:41.512Z,5.12
2023-04-02T02:11:41.665Z,5.12
2023-04-02T02:12:41.813Z,5.12
2023-04-02T02:13:42.164Z,5.04
2023-04-02T02:14:42.121Z,5.2
2023-04-02T02:15:42.285Z,5.12
2023-04-02T02:16:42.498Z,5.12
2023-04-02T02:17:42.631Z,5.12
2023-04-02T02:18:42.725Z,5.04
2023-04-02T02:19:42.876Z,5.04
2023-04-02T02:20:43.042Z,5.04
2023-04-02T02:21:43.183Z,5.04
2023-04-02T02:22:43.340Z,5.12
2023-04-02T02:23:43.486Z,4.88
2023-04-02T02:24:43.636Z,5.04
2023-04-02T02:25:43.786Z,5.12
2023-04-02T02:26:43.937Z,5.04
2023-04-02T02:27:44.092Z,4.88
2023-04-02T02:28:44.242Z,4.88
2023-04-02T02:29:44.393Z,5.04
2023-04-02T02:30:44.494Z,4.88
2023-04-02T02:31:44.630Z,5.04
2023-04-02T02:32:44.776Z,5.04
2023-04-02T02:33:44.897Z,5.04
2023-04-02T02:34:45.011Z,4.88
2023-04-02T02:35:45.202Z,4.88
2023-04-02T02:36:45.301Z,4.88
2023-04-02T02:37:45.455Z,4.8
2023-04-02T02:38:45.607Z,4.8
2023-04-02T02:39:45.766Z,4.8
2023-04-02T02:40:45.865Z,4.8
2023-04-02T02:41:46.014Z,4.8
2023-04-02T02:42:46.162Z,4.8
2023-04-02T02:43:46.317Z,4.8
2023-04-02T02:44:46.469Z,4.72
2023-04-02T02:45:46.620Z,4.8
2023-04-02T02:46:46.767Z,4.8
2023-04-02T02:47:46.934Z,4.72
2023-04-02T02:48:47.077Z,4.8
2023-04-02T02:49:47.560Z,4.72
2023-04-02T02:50:47.689Z,4.8
2023-04-02T02:51:47.526Z,4.72
2023-04-02T02:52:47.628Z,4.72
2023-04-02T02:53:47.786Z,4.72
2023-04-02T02:54:47.898Z,4.64
2023-04-02T02:55:47.984Z,4.72
2023-04-02T02:56:48.173Z,4.64
2023-04-02T02:57:48.290Z,4.4
2023-04-02T02:58:48.436Z,4.4
2023-04-02T02:59:48.582Z,4.4
2023-04-02T03:00:48.686Z,4.4
2023-04-02T03:01:48.873Z,4.32
2023-04-02T03:02:49.040Z,4.16
2023-04-02T03:03:49.335Z,4.16
2023-04-02T03:04:49.251Z,4.08
2023-04-02T03:05:49.389Z,4.16
2023-04-02T03:06:49.544Z,4.08
2023-04-02T03:07:49.707Z,4.16
2023-04-02T03:08:49.847Z,4.32
2023-04-02T03:09:49.953Z,4.16
2023-04-02T03:10:50.098Z,4.16
2023-04-02T03:11:50.252Z,4.32
2023-04-02T03:12:50.408Z,4.16
2023-04-02T03:13:50.563Z,4.16
2023-04-02T03:14:50.711Z,4.16
2023-04-02T03:15:50.876Z,4.08
2023-04-02T03:16:51.016Z,4.08
2023-04-02T03:17:51.217Z,4
2023-04-02T03:18:51.265Z,4.08
2023-04-02T03:19:51.413Z,4.08
2023-04-02T03:20:51.566Z,4
2023-04-02T03:21:51.716Z,4
2023-04-02T03:22:51.825Z,4
2023-04-02T03:23:51.978Z,4
2023-04-02T03:24:52.080Z,3.92
2023-04-02T03:25:52.239Z,3.92
2023-04-02T03:26:52.390Z,3.84
2023-04-02T03:27:52.526Z,3.84
2023-04-02T03:28:52.717Z,3.92
2023-04-02T03:29:52.835Z,3.68
2023-04-02T03:30:52.977Z,3.84
2023-04-02T03:31:53.087Z,3.92
2023-04-02T03:32:53.222Z,3.84
2023-04-02T03:33:53.338Z,3.84
2023-04-02T03:34:53.487Z,3.84
2023-04-02T03:35:53.678Z,3.6
2023-04-02T03:36:53.792Z,3.84
2023-04-02T03:37:53.960Z,3.84
2023-04-02T03:38:54.058Z,3.84
2023-04-02T03:39:54.385Z,3.68
2023-04-02T03:40:54.412Z,3.84
2023-04-02T03:41:54.567Z,3.68
2023-04-02T03:42:54.709Z,3.68
2023-04-02T03:43:54.853Z,3.68
2023-04-02T03:44:55.384Z,3.68
2023-04-02T03:45:55.163Z,3.84
2023-04-02T03:46:55.870Z,3.68
2023-04-02T03:47:55.468Z,3.68
2023-04-02T03:48:55.571Z,3.84
2023-04-02T03:49:55.712Z,3.68
2023-04-02T03:50:55.863Z,3.6
2023-04-02T03:51:56.034Z,3.68
2023-04-02T03:52:56.166Z,3.68
2023-04-02T03:53:56.336Z,3.68
2023-04-02T03:54:56.487Z,3.68
2023-04-02T03:55:56.578Z,3.6
2023-04-02T03:56:56.738Z,3.6
2023-04-02T03:57:56.881Z,3.6
2023-04-02T03:58:57.027Z,3.6
2023-04-02T03:59:57.180Z,3.6
2023-04-02T04:00:57.334Z,3.6
2023-04-02T04:01:57.525Z,3.6
2023-04-02T04:02:57.712Z,3.68
2023-04-02T04:03:57.773Z,3.52
2023-04-02T04:04:57.887Z,3.68
2023-04-02T04:05:58.043Z,3.6
2023-04-02T04:06:58.189Z,3.6
2023-04-02T04:07:58.347Z,3.6
2023-04-02T04:08:58.487Z,3.52
2023-04-02T04:09:58.651Z,3.6
2023-04-02T04:10:58.835Z,3.6
2023-04-02T04:11:58.950Z,3.6
2023-04-02T04:12:59.099Z,3.6
2023-04-02T04:13:59.249Z,3.52
2023-04-02T04:14:59.398Z,3.52
2023-04-02T04:15:59.554Z,3.6
2023-04-02T04:16:59.765Z,3.6
2023-04-02T04:17:59.906Z,3.52
2023-04-02T04:19:00.011Z,3.6
2023-04-02T04:20:00.222Z,3.6
2023-04-02T04:21:00.311Z,3.52
2023-04-02T04:22:00.457Z,3.6
2023-04-02T04:23:00.614Z,3.52
2023-04-02T04:24:00.716Z,3.44
2023-04-02T04:25:00.866Z,3.44
2023-04-02T04:26:01.018Z,3.28
2023-04-02T04:27:01.183Z,3.52
2023-04-02T04:28:01.322Z,3.44
2023-04-02T04:29:01.476Z,3.28
2023-04-02T04:30:01.627Z,3.44
2023-04-02T04:31:01.787Z,3.44
2023-04-02T04:32:01.969Z,3.28
2023-04-02T04:33:02.106Z,3.44
2023-04-02T04:34:02.229Z,3.2
2023-04-02T04:35:02.388Z,3.2
2023-04-02T04:36:02.578Z,3.2
2023-04-02T04:37:02.689Z,3.2
2023-04-02T04:38:02.789Z,3.2
2023-04-02T04:39:02.939Z,3.2
2023-04-02T04:40:03.108Z,3.12
2023-04-02T04:41:03.246Z,3.2
2023-04-02T04:42:03.389Z,3.12
2023-04-02T04:43:03.498Z,3.12
2023-04-02T04:44:03.646Z,3.12
2023-04-02T04:45:03.802Z,3.12
2023-04-02T04:46:03.978Z,3.12
2023-04-02T04:47:04.009Z,3.04
2023-04-02T04:48:04.182Z,3.12
2023-04-02T04:49:04.300Z,3.2
2023-04-02T04:50:04.451Z,3.2
2023-04-02T04:51:04.608Z,3.28
2023-04-02T04:52:04.764Z,3.28
2023-04-02T04:53:04.912Z,3.2
2023-04-02T04:54:05.063Z,3.2
2023-04-02T04:55:05.224Z,3.28
2023-04-02T04:56:18.421Z,3.44
2023-04-02T04:57:05.470Z,3.44
2023-04-02T04:58:05.567Z,3.52
2023-04-02T04:59:05.719Z,3.6
2023-04-02T05:00:05.896Z,3.44
2023-04-02T05:01:06.128Z,3.28
2023-04-02T05:02:06.187Z,3.28
2023-04-02T05:03:06.312Z,3.2
2023-04-02T05:04:06.376Z,3.28
2023-04-02T05:05:06.527Z,3.28
2023-04-02T05:06:06.631Z,3.44
2023-04-02T05:07:06.782Z,3.2
2023-04-02T05:08:06.939Z,3.2
2023-04-02T05:09:07.089Z,3.2
2023-04-02T05:10:07.237Z,3.12
2023-04-02T05:11:07.392Z,3.2
2023-04-02T05:12:07.500Z,3.12
2023-04-02T05:13:07.640Z,3.12
2023-04-02T05:14:07.793Z,3.2
2023-04-02T05:15:07.887Z,3.28
2023-04-02T05:16:08.168Z,3.12
2023-04-02T05:17:08.152Z,3.04
2023-04-02T05:18:08.301Z,3.12
2023-04-02T05:19:08.445Z,3.04
2023-04-02T05:20:08.599Z,3.04
2023-04-02T05:21:08.750Z,3.04
2023-04-02T05:22:08.914Z,3.04
2023-04-02T05:23:09.005Z,3.04
2023-04-02T05:24:09.188Z,3.04
2023-04-02T05:25:09.306Z,3.04
2023-04-02T05:26:09.461Z,3.04
2023-04-02T05:27:09.609Z,3.12
2023-04-02T05:28:09.769Z,3.04
2023-04-02T05:29:09.922Z,3.04
2023-04-02T05:30:10.029Z,3.04
2023-04-02T05:31:10.229Z,3.12
2023-04-02T05:32:10.316Z,3.2
2023-04-02T05:33:10.452Z,3.12
2023-04-02T05:34:10.573Z,3.04
2023-04-02T05:35:10.717Z,2.88
2023-04-02T05:36:10.897Z,3.12
2023-04-02T05:37:11.024Z,3.12
2023-04-02T05:38:11.173Z,3.2
2023-04-02T05:39:11.328Z,3.12
2023-04-02T05:40:11.496Z,3.12
2023-04-02T05:41:11.640Z,3.04
2023-04-02T05:42:11.786Z,3.04
2023-04-02T05:43:12.489Z,3.12
2023-04-02T05:44:12.039Z,3.04
2023-04-02T05:45:12.558Z,3.04
2023-04-02T05:46:12.259Z,3.04
2023-04-02T05:47:12.370Z,3.04
2023-04-02T05:48:12.492Z,2.88
2023-04-02T05:49:12.648Z,2.88
2023-04-02T05:50:12.799Z,2.88
2023-04-02T05:51:12.948Z,2.8
2023-04-02T05:52:13.105Z,2.88
2023-04-02T05:53:13.255Z,2.8
2023-04-02T05:54:13.419Z,2.8
2023-04-02T05:55:13.568Z,2.8
2023-04-02T05:56:14.026Z,2.8
2023-04-02T05:57:14.264Z,2.72
2023-04-02T05:58:34.381Z,2.72
2023-04-02T05:59:14.485Z,2.88
2023-04-02T06:00:14.535Z,2.88
2023-04-02T06:01:14.813Z,2.88
2023-04-02T06:02:14.957Z,3.04
2023-04-02T06:03:15.144Z,2.88
2023-04-02T06:04:15.260Z,3.04
2023-04-02T06:05:15.020Z,2.88
2023-04-02T06:06:15.175Z,3.04
2023-04-02T06:07:16.049Z,2.88
2023-04-02T06:08:15.737Z,2.88
2023-04-02T06:09:15.906Z,2.8
2023-04-02T06:10:15.730Z,2.8
2023-04-02T06:11:16.143Z,2.8
2023-04-02T06:12:16.296Z,2.8
2023-04-02T06:13:16.458Z,2.72
2023-04-02T06:14:16.652Z,2.88
2023-04-02T06:15:16.688Z,2.8
2023-04-02T06:16:16.970Z,2.64
2023-04-02T06:17:16.732Z,2.48
2023-04-02T06:18:17.256Z,2.64
2023-04-02T06:19:16.996Z,2.64
2023-04-02T06:20:17.103Z,2.72
2023-04-02T06:21:17.199Z,2.72
2023-04-02T06:22:17.346Z,2.72
2023-04-02T06:23:17.503Z,2.8
2023-04-02T06:24:17.648Z,2.64
2023-04-02T06:25:17.797Z,2.64
2023-04-02T06:26:17.950Z,2.72
2023-04-02T06:27:18.109Z,2.64
2023-04-02T06:28:18.267Z,2.4
2023-04-02T06:29:18.410Z,2.4
2023-04-02T06:30:18.514Z,2.4
2023-04-02T06:31:18.708Z,2.48
2023-04-02T06:32:18.808Z,2.4
2023-04-02T06:33:18.960Z,2.48
2023-04-02T06:34:19.113Z,2.48
2023-04-02T06:35:19.274Z,2.48
2023-04-02T06:36:19.428Z,2.48
2023-04-02T06:37:19.572Z,2.4
2023-04-02T06:38:19.719Z,2.48
2023-04-02T06:39:20.184Z,2.4
2023-04-02T06:40:20.378Z,2.4
2023-04-02T06:41:20.130Z,2.4
2023-04-02T06:42:20.316Z,2.24
2023-04-02T06:43:20.383Z,2.24
2023-04-02T06:44:20.768Z,2.08
2023-04-02T06:45:20.686Z,2.24
2023-04-02T06:46:20.884Z,2.24
2023-04-02T06:47:20.935Z,2.32
2023-04-02T06:48:21.086Z,2.32
2023-04-02T06:49:21.250Z,2.32
2023-04-02T06:50:21.426Z,2.32
2023-04-02T06:51:21.503Z,2.32
2023-04-02T06:52:21.647Z,2.24
2023-04-02T06:53:21.804Z,2.32
2023-04-02T06:54:21.947Z,2.32
2023-04-02T06:55:22.135Z,2.24
2023-04-02T06:56:22.240Z,2.4
2023-04-02T06:57:22.381Z,2.4
2023-04-02T06:58:22.525Z,2.32
2023-04-02T06:59:22.655Z,2.32
2023-04-02T07:00:22.808Z,2.48
2023-04-02T07:01:23.029Z,2.4
2023-04-02T07:02:23.111Z,2.48
2023-04-02T07:03:23.259Z,2.4
2023-04-02T07:04:23.417Z,2.4
2023-04-02T07:05:23.519Z,2.4
2023-04-02T07:06:23.677Z,2.32
2023-04-02T07:07:23.816Z,2.48
2023-04-02T07:08:23.979Z,2.4
2023-04-02T07:09:24.123Z,2.48
2023-04-02T07:10:24.267Z,2.64
2023-04-02T07:11:24.417Z,2.48
2023-04-02T07:12:24.571Z,2.64
2023-04-02T07:13:24.669Z,2.72
2023-04-02T07:14:24.819Z,2.72
2023-04-02T07:15:24.978Z,2.48
2023-04-02T07:16:25.234Z,2.64
2023-04-02T07:17:25.236Z,2.48
2023-04-02T07:18:25.377Z,2.4
2023-04-02T07:19:25.526Z,2.48
2023-04-02T07:20:25.675Z,2.48
2023-04-02T07:21:25.828Z,2.48
2023-04-02T07:22:25.983Z,2.64
2023-04-02T07:23:26.137Z,2.48
2023-04-02T07:24:26.290Z,2.48
2023-04-02T07:25:26.409Z,2.64
2023-04-02T07:26:26.596Z,2.48
2023-04-02T07:27:26.741Z,2.72
2023-04-02T07:28:26.903Z,2.64
2023-04-02T07:29:27.054Z,2.72
2023-04-02T07:30:27.188Z,2.64
2023-04-02T07:31:27.424Z,2.4
2023-04-02T07:32:27.501Z,2.4
2023-04-02T07:33:27.605Z,2.48
2023-04-02T07:34:27.748Z,2.48
2023-04-02T07:35:27.917Z,2.48
2023-04-02T07:36:28.007Z,2.48
2023-04-02T07:37:28.153Z,2.48
2023-04-02T07:38:28.305Z,2.4
2023-04-02T07:39:28.460Z,2.32
2023-04-02T07:40:28.622Z,2.32
2023-04-02T07:41:28.796Z,2.4
2023-04-02T07:42:28.926Z,2.32
2023-04-02T07:43:29.060Z,2.32
2023-04-02T07:44:29.217Z,2.4
2023-04-02T07:45:29.315Z,2.32
2023-04-02T07:46:29.418Z,2.32
2023-04-02T07:47:29.572Z,2.08
2023-04-02T07:48:29.720Z,2.08
2023-04-02T07:49:29.881Z,2.08
2023-04-02T07:50:29.982Z,1.92
2023-04-02T07:51:30.124Z,1.92
2023-04-02T07:52:30.284Z,1.92
2023-04-02T07:53:30.501Z,2
2023-04-02T07:54:30.588Z,1.92
2023-04-02T07:55:30.762Z,1.92
2023-04-02T07:56:30.886Z,1.84
2023-04-02T07:57:31.098Z,2
2023-04-02T07:58:31.230Z,1.92
2023-04-02T07:59:31.296Z,1.92
2023-04-02T08:00:31.441Z,1.92
2023-04-02T08:01:31.589Z,2.08
2023-04-02T08:02:31.837Z,2.08
2023-04-02T08:03:32.034Z,2.24
2023-04-02T08:04:32.000Z,2.32
2023-04-02T08:05:32.143Z,2.32
2023-04-02T08:06:32.305Z,2.32
2023-04-02T08:07:32.407Z,2.24
2023-04-02T08:08:32.555Z,2.32
2023-04-02T08:09:32.704Z,2.24
2023-04-02T08:10:32.852Z,2.24
2023-04-02T08:11:33.012Z,2.24
2023-04-02T08:12:33.162Z,2.32
2023-04-02T08:13:33.314Z,2.32
2023-04-02T08:14:33.468Z,2.24
2023-04-02T08:15:33.830Z,2.4
2023-04-02T08:16:33.689Z,2.24
2023-04-02T08:17:33.796Z,2.08
2023-04-02T08:18:33.917Z,2.08
2023-04-02T08:19:41.523Z,2
2023-04-02T08:20:34.172Z,1.92
2023-04-02T08:21:34.322Z,1.92
2023-04-02T08:22:34.440Z,1.92
2023-04-02T08:23:34.527Z,1.84
2023-04-02T08:24:34.679Z,1.84
2023-04-02T08:25:34.941Z,1.84
2023-04-02T08:26:34.984Z,1.92
2023-04-02T08:27:35.457Z,1.92
2023-04-02T08:28:35.235Z,1.84
2023-04-02T08:29:35.385Z,1.84
2023-04-02T08:30:35.548Z,1.84
2023-04-02T08:31:35.646Z,1.84
2023-04-02T08:32:35.808Z,1.84
2023-04-02T08:33:35.901Z,1.84
2023-04-02T08:34:36.006Z,1.84
2023-04-02T08:35:36.508Z,1.92
2023-04-02T08:36:36.320Z,1.92
2023-04-02T08:37:36.446Z,2
2023-04-02T08:38:36.617Z,1.84
2023-04-02T08:39:36.752Z,1.84
2023-04-02T08:40:36.905Z,1.84
2023-04-02T08:41:37.065Z,1.84
2023-04-02T08:42:37.212Z,1.92
2023-04-02T08:43:37.359Z,1.84
2023-04-02T08:44:37.514Z,1.84
2023-04-02T08:45:37.661Z,1.84
2023-04-02T08:46:37.859Z,1.84
2023-04-02T08:47:37.979Z,1.92
2023-04-02T08:48:38.566Z,1.92
2023-04-02T08:49:38.169Z,1.84
2023-04-02T08:50:38.331Z,1.84
2023-04-02T08:51:38.472Z,1.92
2023-04-02T08:52:38.621Z,1.92
2023-04-02T08:53:38.735Z,1.84
2023-04-02T08:54:38.822Z,2
2023-04-02T08:55:38.925Z,1.92
2023-04-02T08:56:39.078Z,1.84
2023-04-02T08:57:39.227Z,1.92
2023-04-02T08:58:39.386Z,1.84
2023-04-02T08:59:39.546Z,1.84
2023-04-02T09:00:39.690Z,1.84
2023-04-02T09:01:39.852Z,1.84
2023-04-02T09:02:40.005Z,1.84
2023-04-02T09:03:40.138Z,1.92
2023-04-02T09:04:40.325Z,1.92
2023-04-02T09:05:40.391Z,1.92
2023-04-02T09:06:40.540Z,2
2023-04-02T09:07:40.641Z,2
2023-04-02T09:08:40.812Z,2
2023-04-02T09:09:40.949Z,2.08
2023-04-02T09:10:41.117Z,2.24
2023-04-02T09:11:41.245Z,2.08
2023-04-02T09:12:42.347Z,2
2023-04-02T09:13:41.562Z,2
2023-04-02T09:14:41.709Z,2
2023-04-02T09:15:41.879Z,2
2023-04-02T09:16:42.008Z,2
2023-04-02T09:17:51.022Z,2.24
2023-04-02T09:18:42.353Z,2
2023-04-02T09:19:42.412Z,2.08
2023-04-02T09:20:42.566Z,2.24
2023-04-02T09:21:42.722Z,2.08
2023-04-02T09:22:42.866Z,2.08
2023-04-02T09:23:43.015Z,2.24
2023-04-02T09:24:43.187Z,2.24
2023-04-02T09:25:43.377Z,2.32
2023-04-02T09:26:43.474Z,2.32
2023-04-02T09:27:43.632Z,2.32
2023-04-02T09:28:43.776Z,2.32
2023-04-02T09:29:43.909Z,2.4
2023-04-02T09:30:44.035Z,2.4
2023-04-02T09:31:44.202Z,2.72
2023-04-02T09:32:44.365Z,2.88
2023-04-02T09:33:44.438Z,2.8
2023-04-02T09:34:44.591Z,2.72
2023-04-02T09:35:44.749Z,2.48
2023-04-02T09:36:44.837Z,2.48
2023-04-02T09:37:44.944Z,2.4
2023-04-02T09:38:45.093Z,2.4
2023-04-02T09:39:45.251Z,2.32
2023-04-02T09:40:45.394Z,2.4
2023-04-02T09:41:48.147Z,2.32
2023-04-02T09:42:45.710Z,2.4
2023-04-02T09:43:45.858Z,2.4
2023-04-02T09:44:46.003Z,2.48
2023-04-02T09:45:46.152Z,2.32
2023-04-02T09:46:46.307Z,2.48
2023-04-02T09:47:46.417Z,2.48
2023-04-02T09:48:46.562Z,2.48
2023-04-02T09:49:46.714Z,2.64
2023-04-02T09:50:46.811Z,2.64
2023-04-02T09:51:46.964Z,2.8
2023-04-02T09:52:47.064Z,2.8
2023-04-02T09:53:47.231Z,3.12
2023-04-02T09:54:47.363Z,3.2
2023-04-02T09:55:47.521Z,3.04
2023-04-02T09:56:47.680Z,3.04
2023-04-02T09:57:47.819Z,3.12
2023-04-02T09:58:47.925Z,2.88
2023-04-02T09:59:48.076Z,2.72
2023-04-02T10:00:48.248Z,2.8
2023-04-02T10:01:48.380Z,2.88
2023-04-02T10:02:48.542Z,2.72
2023-04-02T10:03:48.698Z,2.64
2023-04-02T10:04:48.924Z,2.4
2023-04-02T10:05:48.981Z,2.48
2023-04-02T10:06:49.189Z,2.48
2023-04-02T10:07:49.237Z,2.4
2023-04-02T10:08:49.383Z,2.4
2023-04-02T10:09:49.537Z,2.32
2023-04-02T10:10:49.686Z,2.32
2023-04-02T10:11:49.837Z,2.4
2023-04-02T10:12:50.000Z,2.32
2023-04-02T10:13:50.139Z,2.32
2023-04-02T10:14:50.289Z,2.32
2023-04-02T10:15:50.430Z,2.32
2023-04-02T10:16:50.594Z,2.32
2023-04-02T10:17:50.723Z,2.32
2023-04-02T10:18:50.851Z,2.4
2023-04-02T10:19:50.997Z,2.4
2023-04-02T10:20:51.604Z,2.32
2023-04-02T10:21:51.304Z,2.4
2023-04-02T10:22:51.454Z,2.4
2023-04-02T10:23:51.607Z,2.32
2023-04-02T10:24:52.490Z,2.24
2023-04-02T10:25:51.914Z,2.32
2023-04-02T10:26:52.464Z,2.4
2023-04-02T10:27:52.167Z,2.4
2023-04-02T10:28:52.313Z,2.64
2023-04-02T10:29:53.104Z,2.64
2023-04-02T10:31:52.737Z,2.64
2023-04-02T10:32:52.891Z,2.48
2023-04-02T10:33:53.097Z,2.48
2023-04-02T10:34:53.195Z,2.8
2023-04-02T10:35:53.376Z,2.72
2023-04-02T10:36:53.477Z,2.64
2023-04-02T10:37:53.594Z,2.48
2023-04-02T10:38:53.745Z,2.8
2023-04-02T10:39:53.894Z,2.88
2023-04-02T10:40:55.332Z,2.88
2023-04-02T10:41:54.138Z,2.8
2023-04-02T10:42:54.296Z,3.04
2023-04-02T10:43:54.439Z,3.2
2023-04-02T10:44:54.592Z,3.12
2023-04-02T10:45:54.761Z,3.2
2023-04-02T10:46:54.908Z,3.04
2023-04-02T10:47:55.102Z,3.2
2023-04-02T10:48:55.221Z,3.12
2023-04-02T10:49:55.306Z,3.28
2023-04-02T10:50:55.412Z,3.2
2023-04-02T10:51:55.555Z,3.04
2023-04-02T10:52:56.639Z,2.88
2023-04-02T10:53:55.862Z,3.04
2023-04-02T10:54:55.971Z,2.64
2023-04-02T10:55:56.109Z,2.72
2023-04-02T10:56:56.286Z,2.64
2023-04-02T10:57:56.413Z,2.72
2023-04-02T10:58:57.422Z,2.64
2023-04-02T10:59:56.712Z,2.48
2023-04-02T11:00:56.824Z,2.4
2023-04-02T11:01:57.034Z,2.32
2023-04-02T11:02:57.125Z,2.4
2023-04-02T11:03:58.227Z,2.4
2023-04-02T11:04:58.162Z,2.32
2023-04-02T11:05:57.524Z,2.32
2023-04-02T11:07:03.807Z,2.32
2023-04-02T11:07:57.783Z,2.4
2023-04-02T11:08:57.944Z,2.32
2023-04-02T11:09:58.033Z,2.4
2023-04-02T11:10:58.183Z,2.4
2023-04-02T11:11:58.283Z,2.32
2023-04-02T11:12:58.429Z,2.24
2023-04-02T11:13:58.532Z,2.4
2023-04-02T11:14:58.640Z,2.32
2023-04-02T11:15:58.834Z,2.48
2023-04-02T11:16:58.896Z,2.4
2023-04-02T11:17:59.024Z,2.4
2023-04-02T11:18:59.138Z,2.32
2023-04-02T11:19:59.312Z,2.32
2023-04-02T11:20:59.448Z,2.4
2023-04-02T11:22:00.965Z,2.24
2023-04-02T11:22:59.744Z,2.48
2023-04-02T11:23:59.946Z,2.64
2023-04-02T11:25:00.091Z,2.4
2023-04-02T11:26:00.172Z,2.32
2023-04-02T11:27:00.256Z,2.24
2023-04-02T11:28:00.406Z,2.24
2023-04-02T11:29:00.555Z,2.32
2023-04-02T11:30:00.670Z,2.4
2023-04-02T11:31:00.828Z,2.24
2023-04-02T11:32:00.959Z,2.32
2023-04-02T11:33:01.214Z,2.32
2023-04-02T11:34:01.263Z,2.24
2023-04-02T11:35:06.931Z,2.32
2023-04-02T11:36:01.578Z,2.32
2023-04-02T11:37:01.736Z,2.24
2023-04-02T11:38:01.872Z,2.4
2023-04-02T11:39:10.981Z,2.4
2023-04-02T11:40:02.074Z,2.4
2023-04-02T11:41:02.234Z,2.4
2023-04-02T11:42:02.339Z,2.64
2023-04-02T11:43:02.461Z,2.48
2023-04-02T11:44:02.535Z,2.48
2023-04-02T11:45:02.683Z,2.48
2023-04-02T11:46:02.832Z,2.48
2023-04-02T11:47:03.087Z,2.4
2023-04-02T11:48:03.171Z,2.4
2023-04-02T11:49:03.238Z,2.4
2023-04-02T11:50:03.403Z,2.4
2023-04-02T11:51:03.540Z,2.4
2023-04-02T11:52:11.730Z,2.48
2023-04-02T11:53:03.844Z,2.48
2023-04-02T11:54:03.998Z,2.64
2023-04-02T11:55:04.108Z,2.64
2023-04-02T11:56:04.203Z,2.64
2023-04-02T11:57:04.379Z,2.64
2023-04-02T11:58:04.503Z,2.64
2023-04-02T11:59:04.658Z,2.64
2023-04-02T12:00:04.810Z,2.64
2023-04-02T12:01:04.907Z,2.64
2023-04-02T12:02:05.228Z,2.48
2023-04-02T12:03:05.225Z,2.4
2023-04-02T12:04:05.363Z,2.64
2023-04-02T12:05:05.529Z,2.32
2023-04-02T12:06:05.659Z,2.4
2023-04-02T12:07:05.759Z,2.48
2023-04-02T12:08:05.917Z,2.64
2023-04-02T12:09:06.068Z,2.4
2023-04-02T12:10:06.226Z,2.4
2023-04-02T12:11:06.369Z,2.4
2023-04-02T12:12:06.517Z,2.4
2023-04-02T12:13:06.672Z,2.32
2023-04-02T12:14:06.818Z,2.4
2023-04-02T12:15:06.974Z,2.48
2023-04-02T12:16:07.073Z,2.48
2023-04-02T12:17:09.370Z,2.64
2023-04-02T12:18:07.393Z,2.72
2023-04-02T12:19:07.529Z,2.8
2023-04-02T12:20:07.684Z,2.8
2023-04-02T12:21:07.829Z,3.12
2023-04-02T12:22:08.035Z,3.12
2023-04-02T12:23:08.130Z,3.44
2023-04-02T12:24:08.305Z,3.28
2023-04-02T12:25:08.434Z,3.12
2023-04-02T12:26:08.597Z,3.28
2023-04-02T12:27:08.743Z,3.52
2023-04-02T12:28:08.894Z,3.28
2023-04-02T12:29:09.044Z,3.28
2023-04-02T12:30:09.147Z,3.28
2023-04-02T12:31:09.408Z,3.2
2023-04-02T12:32:09.396Z,3.04
2023-04-02T12:33:09.575Z,3.04
2023-04-02T12:34:09.703Z,3.04
2023-04-02T12:35:09.817Z,3.04
2023-04-02T12:36:10.040Z,2.88
2023-04-02T12:37:10.106Z,2.8
2023-04-02T12:38:10.262Z,2.8
2023-04-02T12:39:10.407Z,2.8
2023-04-02T12:40:10.557Z,2.72
2023-04-02T12:41:10.710Z,2.72
2023-04-02T12:42:10.862Z,2.72
2023-04-02T12:43:11.018Z,2.72
2023-04-02T12:44:11.169Z,2.72
2023-04-02T12:45:11.322Z,2.72
2023-04-02T12:46:11.471Z,2.72
2023-04-02T12:47:11.959Z,2.64
2023-04-02T12:48:11.751Z,2.8
2023-04-02T12:49:11.877Z,3.12
2023-04-02T12:50:12.027Z,3.04
2023-04-02T12:51:12.130Z,3.12
2023-04-02T12:52:12.285Z,3.04
2023-04-02T12:53:12.428Z,3.12
2023-04-02T12:54:12.588Z,3.28
2023-04-02T12:55:12.733Z,3.44
2023-04-02T12:56:12.849Z,3.6
2023-04-02T12:57:12.995Z,3.44
2023-04-02T12:58:13.085Z,3.28
2023-04-02T12:59:13.190Z,3.28
2023-04-02T13:00:13.337Z,3.12
2023-04-02T13:01:13.518Z,3.04
2023-04-02T13:02:13.650Z,3.04
2023-04-02T13:03:13.847Z,2.8
2023-04-02T13:04:13.966Z,2.88
2023-04-02T13:05:14.101Z,2.8
2023-04-02T13:06:14.254Z,2.8
2023-04-02T13:07:14.403Z,2.72
2023-04-02T13:08:14.557Z,2.72
2023-04-02T13:09:14.704Z,2.8
2023-04-02T13:10:14.873Z,2.88
2023-04-02T13:11:15.011Z,2.88
2023-04-02T13:12:15.165Z,2.88
2023-04-02T13:13:15.266Z,3.12
2023-04-02T13:14:15.417Z,3.12
2023-04-02T13:15:15.564Z,3.44
2023-04-02T13:16:15.748Z,3.44
2023-04-02T13:17:15.818Z,3.28
2023-04-02T13:18:15.971Z,3.12
2023-04-02T13:19:16.126Z,3.12
2023-04-02T13:20:16.271Z,3.04
2023-04-02T13:21:16.422Z,3.04
2023-04-02T13:22:16.585Z,3.04
2023-04-02T13:23:16.729Z,3.12
2023-04-02T13:24:16.880Z,3.12
2023-04-02T13:25:17.036Z,3.2
2023-04-02T13:26:17.140Z,3.44
2023-04-02T13:27:19.211Z,3.44
2023-04-02T13:28:17.439Z,3.52
2023-04-02T13:29:17.539Z,3.52
2023-04-02T13:30:17.642Z,3.52
2023-04-02T13:31:17.862Z,3.52